sensor_id;sensor_type;location;lat;lon;timestamp;P1;durP1;ratioP1;P2;durP2;ratioP2
52396;SDS011;38322;53.108;6.308;2022-10-13T05:03:00;22.65;;;15.18;;
52396;SDS011;38322;53.108;6.308;2022-10-13T05:05:25;33.28;;;20.38;;
52396;SDS011;38322;53.108;6.308;2022-10-13T05:07:51;27.58;;;18.88;;
52396;SDS011;38322;53.108;6.308;2022-10-13T05:10:17;25.83;;;17.30;;
52396;SDS011;38322;53.108;6.308;2022-10-13T05:12:43;35.72;;;19.88;;
52396;SDS011;38322;53.108;6.308;2022-10-13T05:15:09;33.92;;;19.17;;
52396;SDS011;38322;53.108;6.308;2022-10-13T05:17:35;34.20;;;20.15;;
52396;SDS011;38322;53.108;6.308;2022-10-13T05:20:01;26.45;;;17.17;;
52396;SDS011;38322;53.108;6.308;2022-10-13T05:22:27;24.10;;;18.48;;
52396;SDS011;38322;53.108;6.308;2022-10-13T05:24:53;27.73;;;16.98;;
52396;SDS011;38322;53.108;6.308;2022-10-13T05:27:18;24.63;;;14.98;;
52396;SDS011;38322;53.108;6.308;2022-10-13T05:29:45;27.35;;;18.33;;
52396;SDS011;38322;53.108;6.308;2022-10-13T05:32:11;24.92;;;17.02;;
52396;SDS011;38322;53.108;6.308;2022-10-13T05:34:37;20.65;;;15.60;;
52396;SDS011;38322;53.108;6.308;2022-10-13T05:37:03;23.45;;;17.35;;
52396;SDS011;38322;53.108;6.308;2022-10-13T05:39:29;26.95;;;16.50;;
52396;SDS011;38322;53.108;6.308;2022-10-13T05:41:54;28.77;;;18.10;;
52396;SDS011;38322;53.108;6.308;2022-10-13T05:44:20;22.67;;;16.75;;
52396;SDS011;38322;53.108;6.308;2022-10-13T05:46:46;25.75;;;17.85;;
52396;SDS011;38322;53.108;6.308;2022-10-13T05:49:12;29.58;;;16.98;;
52396;SDS011;38322;53.108;6.308;2022-10-13T05:51:40;24.02;;;16.48;;
52396;SDS011;38322;53.108;6.308;2022-10-13T05:54:12;24.40;;;16.52;;
52396;SDS011;38322;53.108;6.308;2022-10-13T05:56:56;27.50;;;16.67;;
52396;SDS011;38322;53.108;6.308;2022-10-13T06:01:54;29.27;;;18.42;;
52396;SDS011;38322;53.108;6.308;2022-10-13T06:04:21;24.85;;;17.17;;
52396;SDS011;38322;53.108;6.308;2022-10-13T06:06:49;24.60;;;18.23;;
52396;SDS011;38322;53.108;6.308;2022-10-13T06:09:15;27.92;;;17.08;;
52396;SDS011;38322;53.108;6.308;2022-10-13T06:11:42;21.27;;;15.68;;
52396;SDS011;38322;53.108;6.308;2022-10-13T06:14:07;25.02;;;16.80;;
52396;SDS011;38322;53.108;6.308;2022-10-13T06:16:34;22.33;;;16.13;;
52396;SDS011;38322;53.108;6.308;2022-10-13T06:19:01;25.67;;;16.05;;
52396;SDS011;38322;53.108;6.308;2022-10-13T06:21:28;29.70;;;19.58;;
52396;SDS011;38322;53.108;6.308;2022-10-13T06:23:53;27.88;;;19.55;;
52396;SDS011;38322;53.108;6.308;2022-10-13T06:26:19;26.13;;;17.40;;
52396;SDS011;38322;53.108;6.308;2022-10-13T06:28:45;30.58;;;17.98;;
52396;SDS011;38322;53.108;6.308;2022-10-13T06:31:11;27.05;;;18.00;;
52396;SDS011;38322;53.108;6.308;2022-10-13T06:33:38;29.02;;;19.00;;
52396;SDS011;38322;53.108;6.308;2022-10-13T06:36:04;26.67;;;17.20;;
52396;SDS011;38322;53.108;6.308;2022-10-13T06:38:31;28.30;;;17.30;;
52396;SDS011;38322;53.108;6.308;2022-10-13T06:41:03;27.25;;;17.90;;
52396;SDS011;38322;53.108;6.308;2022-10-13T06:43:30;23.80;;;17.05;;
52396;SDS011;38322;53.108;6.308;2022-10-13T06:45:57;27.70;;;18.65;;
52396;SDS011;38322;53.108;6.308;2022-10-13T06:48:23;26.38;;;19.58;;
52396;SDS011;38322;53.108;6.308;2022-10-13T06:50:49;33.22;;;18.70;;
52396;SDS011;38322;53.108;6.308;2022-10-13T06:53:15;25.17;;;18.48;;
52396;SDS011;38322;53.108;6.308;2022-10-13T06:55:41;36.85;;;21.45;;
52396;SDS011;38322;53.108;6.308;2022-10-13T06:58:08;29.17;;;19.00;;
52396;SDS011;38322;53.108;6.308;2022-10-13T07:00:35;29.98;;;20.08;;
52396;SDS011;38322;53.108;6.308;2022-10-13T07:03:02;28.02;;;18.40;;
52396;SDS011;38322;53.108;6.308;2022-10-13T07:05:28;29.08;;;19.60;;
52396;SDS011;38322;53.108;6.308;2022-10-13T07:07:54;31.45;;;20.45;;
52396;SDS011;38322;53.108;6.308;2022-10-13T07:10:20;29.35;;;19.10;;
52396;SDS011;38322;53.108;6.308;2022-10-13T07:12:46;24.88;;;20.05;;
52396;SDS011;38322;53.108;6.308;2022-10-13T07:15:12;27.20;;;20.40;;
52396;SDS011;38322;53.108;6.308;2022-10-13T07:17:37;30.60;;;20.38;;
52396;SDS011;38322;53.108;6.308;2022-10-13T07:20:03;25.98;;;19.40;;
52396;SDS011;38322;53.108;6.308;2022-10-13T07:22:30;29.33;;;20.02;;
52396;SDS011;38322;53.108;6.308;2022-10-13T07:24:55;26.60;;;19.98;;
52396;SDS011;38322;53.108;6.308;2022-10-13T07:27:21;24.77;;;16.85;;
52396;SDS011;38322;53.108;6.308;2022-10-13T07:29:48;36.08;;;20.90;;
52396;SDS011;38322;53.108;6.308;2022-10-13T07:32:14;32.60;;;20.35;;
52396;SDS011;38322;53.108;6.308;2022-10-13T07:34:40;26.40;;;19.42;;
52396;SDS011;38322;53.108;6.308;2022-10-13T07:37:07;34.33;;;20.63;;
52396;SDS011;38322;53.108;6.308;2022-10-13T07:39:33;23.27;;;18.13;;
52396;SDS011;38322;53.108;6.308;2022-10-13T07:41:58;33.20;;;22.98;;
52396;SDS011;38322;53.108;6.308;2022-10-13T07:44:24;27.38;;;19.60;;
52396;SDS011;38322;53.108;6.308;2022-10-13T07:46:50;27.10;;;19.75;;
52396;SDS011;38322;53.108;6.308;2022-10-13T07:49:16;30.67;;;21.23;;
52396;SDS011;38322;53.108;6.308;2022-10-13T07:51:42;25.80;;;19.13;;
52396;SDS011;38322;53.108;6.308;2022-10-13T07:54:08;27.05;;;18.38;;
52396;SDS011;38322;53.108;6.308;2022-10-13T07:56:34;33.25;;;21.63;;
52396;SDS011;38322;53.108;6.308;2022-10-13T07:59:00;27.17;;;17.58;;
52396;SDS011;38322;53.108;6.308;2022-10-13T08:01:27;26.75;;;20.73;;
52396;SDS011;38322;53.108;6.308;2022-10-13T08:03:54;32.80;;;18.73;;
52396;SDS011;38322;53.108;6.308;2022-10-13T08:06:21;23.88;;;18.02;;
52396;SDS011;38322;53.108;6.308;2022-10-13T08:08:46;28.48;;;20.67;;
52396;SDS011;38322;53.108;6.308;2022-10-13T08:11:13;24.95;;;17.08;;
52396;SDS011;38322;53.108;6.308;2022-10-13T08:13:40;31.20;;;18.10;;
52396;SDS011;38322;53.108;6.308;2022-10-13T08:16:06;26.27;;;19.63;;
52396;SDS011;38322;53.108;6.308;2022-10-13T08:18:32;31.98;;;21.48;;
52396;SDS011;38322;53.108;6.308;2022-10-13T08:20:58;30.02;;;17.70;;
52396;SDS011;38322;53.108;6.308;2022-10-13T08:23:26;30.00;;;21.40;;
52396;SDS011;38322;53.108;6.308;2022-10-13T08:25:52;29.35;;;19.70;;
52396;SDS011;38322;53.108;6.308;2022-10-13T08:28:20;23.15;;;17.98;;
52396;SDS011;38322;53.108;6.308;2022-10-13T08:30:48;29.45;;;17.15;;
52396;SDS011;38322;53.108;6.308;2022-10-13T08:33:16;25.02;;;17.63;;
52396;SDS011;38322;53.108;6.308;2022-10-13T08:35:41;32.28;;;22.13;;
52396;SDS011;38322;53.108;6.308;2022-10-13T08:38:07;34.42;;;20.65;;
52396;SDS011;38322;53.108;6.308;2022-10-13T08:40:34;33.88;;;22.10;;
52396;SDS011;38322;53.108;6.308;2022-10-13T08:43:04;34.85;;;22.85;;
52396;SDS011;38322;53.108;6.308;2022-10-13T08:45:37;34.88;;;21.77;;
52396;SDS011;38322;53.108;6.308;2022-10-13T08:48:06;29.73;;;20.20;;
52396;SDS011;38322;53.108;6.308;2022-10-13T08:50:38;34.03;;;22.63;;
52396;SDS011;38322;53.108;6.308;2022-10-13T08:53:10;30.60;;;22.15;;
52396;SDS011;38322;53.108;6.308;2022-10-13T08:55:50;29.15;;;19.38;;
52396;SDS011;38322;53.108;6.308;2022-10-13T08:58:28;25.67;;;20.00;;
52396;SDS011;38322;53.108;6.308;2022-10-13T09:03:41;26.27;;;19.35;;
52396;SDS011;38322;53.108;6.308;2022-10-13T09:06:26;32.22;;;23.15;;
52396;SDS011;38322;53.108;6.308;2022-10-13T09:09:06;44.15;;;25.02;;
52396;SDS011;38322;53.108;6.308;2022-10-13T09:11:35;36.03;;;22.70;;
52396;SDS011;38322;53.108;6.308;2022-10-13T09:14:04;27.98;;;22.63;;
52396;SDS011;38322;53.108;6.308;2022-10-13T09:16:36;35.05;;;22.35;;
52396;SDS011;38322;53.108;6.308;2022-10-13T09:19:12;33.22;;;23.90;;
52396;SDS011;38322;53.108;6.308;2022-10-13T09:21:41;38.28;;;23.55;;
52396;SDS011;38322;53.108;6.308;2022-10-13T09:24:11;32.55;;;22.08;;
52396;SDS011;38322;53.108;6.308;2022-10-13T09:26:40;33.67;;;23.98;;
52396;SDS011;38322;53.108;6.308;2022-10-13T09:29:09;25.83;;;19.25;;
52396;SDS011;38322;53.108;6.308;2022-10-13T09:31:42;34.78;;;22.02;;
52396;SDS011;38322;53.108;6.308;2022-10-13T09:39:25;34.42;;;24.60;;
52396;SDS011;38322;53.108;6.308;2022-10-13T09:41:51;44.20;;;23.20;;
52396;SDS011;38322;53.108;6.308;2022-10-13T09:44:32;35.85;;;24.00;;
52396;SDS011;38322;53.108;6.308;2022-10-13T09:47:00;36.10;;;22.83;;
52396;SDS011;38322;53.108;6.308;2022-10-13T09:57:14;30.60;;;22.55;;
52396;SDS011;38322;53.108;6.308;2022-10-13T09:59:48;34.65;;;23.67;;
52396;SDS011;38322;53.108;6.308;2022-10-13T10:02:25;35.42;;;24.02;;
52396;SDS011;38322;53.108;6.308;2022-10-13T10:05:13;29.15;;;21.75;;
52396;SDS011;38322;53.108;6.308;2022-10-13T10:10:20;28.88;;;20.23;;
52396;SDS011;38322;53.108;6.308;2022-10-13T10:12:47;26.08;;;19.70;;
52396;SDS011;38322;53.108;6.308;2022-10-13T10:15:15;30.23;;;21.20;;
52396;SDS011;38322;53.108;6.308;2022-10-13T10:17:50;27.70;;;21.73;;
52396;SDS011;38322;53.108;6.308;2022-10-13T10:23:03;29.02;;;21.27;;
52396;SDS011;38322;53.108;6.308;2022-10-13T10:25:37;28.17;;;21.40;;
52396;SDS011;38322;53.108;6.308;2022-10-13T10:30:47;37.65;;;23.30;;
52396;SDS011;38322;53.108;6.308;2022-10-13T10:33:20;25.50;;;19.65;;
52396;SDS011;38322;53.108;6.308;2022-10-13T10:35:57;31.00;;;20.67;;
52396;SDS011;38322;53.108;6.308;2022-10-13T10:38:49;28.52;;;22.13;;
52396;SDS011;38322;53.108;6.308;2022-10-13T10:41:28;30.02;;;21.23;;
52396;SDS011;38322;53.108;6.308;2022-10-13T10:44:03;31.85;;;21.73;;
52396;SDS011;38322;53.108;6.308;2022-10-13T10:46:36;22.88;;;18.48;;
52396;SDS011;38322;53.108;6.308;2022-10-13T10:49:13;30.40;;;21.65;;
52396;SDS011;38322;53.108;6.308;2022-10-13T10:51:46;26.75;;;19.13;;
52396;SDS011;38322;53.108;6.308;2022-10-13T10:54:18;34.97;;;21.95;;
52396;SDS011;38322;53.108;6.308;2022-10-13T10:56:54;23.00;;;17.88;;
52396;SDS011;38322;53.108;6.308;2022-10-13T10:59:42;22.52;;;18.42;;
52396;SDS011;38322;53.108;6.308;2022-10-13T11:02:13;21.38;;;17.17;;
52396;SDS011;38322;53.108;6.308;2022-10-13T11:04:53;23.10;;;18.60;;
52396;SDS011;38322;53.108;6.308;2022-10-13T11:10:17;23.33;;;18.08;;
52396;SDS011;38322;53.108;6.308;2022-10-13T11:15:21;28.08;;;18.45;;
52396;SDS011;38322;53.108;6.308;2022-10-13T11:17:50;30.77;;;19.73;;
52396;SDS011;38322;53.108;6.308;2022-10-13T11:23:24;20.83;;;18.52;;
52396;SDS011;38322;53.108;6.308;2022-10-13T11:28:42;24.42;;;18.48;;
52396;SDS011;38322;53.108;6.308;2022-10-13T11:30:54;24.58;;;18.85;;
52396;SDS011;38322;53.108;6.308;2022-10-13T11:39:01;20.67;;;17.35;;
52396;SDS011;38322;53.108;6.308;2022-10-13T11:41:40;29.33;;;20.35;;
52396;SDS011;38322;53.108;6.308;2022-10-13T11:44:19;28.63;;;21.50;;
52396;SDS011;38322;53.108;6.308;2022-10-13T11:47:01;25.00;;;18.95;;
52396;SDS011;38322;53.108;6.308;2022-10-13T11:52:26;26.20;;;19.77;;
52396;SDS011;38322;53.108;6.308;2022-10-13T11:55:05;22.90;;;17.52;;
52396;SDS011;38322;53.108;6.308;2022-10-13T11:57:38;21.67;;;19.15;;
52396;SDS011;38322;53.108;6.308;2022-10-13T12:00:04;23.77;;;17.52;;
52396;SDS011;38322;53.108;6.308;2022-10-13T12:02:37;21.73;;;18.73;;
52396;SDS011;38322;53.108;6.308;2022-10-13T12:05:20;25.60;;;20.20;;
52396;SDS011;38322;53.108;6.308;2022-10-13T12:07:48;24.42;;;18.80;;
52396;SDS011;38322;53.108;6.308;2022-10-13T12:10:18;23.65;;;17.92;;
52396;SDS011;38322;53.108;6.308;2022-10-13T12:12:49;21.35;;;18.40;;
52396;SDS011;38322;53.108;6.308;2022-10-13T12:15:25;22.92;;;18.13;;
52396;SDS011;38322;53.108;6.308;2022-10-13T12:18:18;22.00;;;17.67;;
52396;SDS011;38322;53.108;6.308;2022-10-13T12:20:51;22.80;;;15.90;;
52396;SDS011;38322;53.108;6.308;2022-10-13T12:23:19;18.20;;;15.00;;
52396;SDS011;38322;53.108;6.308;2022-10-13T12:25:46;24.58;;;18.30;;
52396;SDS011;38322;53.108;6.308;2022-10-13T12:28:17;27.73;;;19.17;;
52396;SDS011;38322;53.108;6.308;2022-10-13T12:30:49;25.02;;;18.85;;
52396;SDS011;38322;53.108;6.308;2022-10-13T12:33:32;22.25;;;16.98;;
52396;SDS011;38322;53.108;6.308;2022-10-13T12:38:44;20.23;;;16.52;;
52396;SDS011;38322;53.108;6.308;2022-10-13T12:41:15;27.55;;;17.63;;
52396;SDS011;38322;53.108;6.308;2022-10-13T12:43:46;22.25;;;15.27;;
52396;SDS011;38322;53.108;6.308;2022-10-13T12:46:33;17.73;;;15.27;;
52396;SDS011;38322;53.108;6.308;2022-10-13T12:49:05;19.45;;;16.35;;
52396;SDS011;38322;53.108;6.308;2022-10-13T12:51:36;20.17;;;16.35;;
52396;SDS011;38322;53.108;6.308;2022-10-13T12:54:05;20.40;;;15.80;;
52396;SDS011;38322;53.108;6.308;2022-10-13T12:56:33;19.98;;;14.52;;
52396;SDS011;38322;53.108;6.308;2022-10-13T12:58:59;22.08;;;15.65;;
52396;SDS011;38322;53.108;6.308;2022-10-13T13:01:27;18.35;;;14.23;;
52396;SDS011;38322;53.108;6.308;2022-10-13T13:03:56;21.27;;;16.50;;
52396;SDS011;38322;53.108;6.308;2022-10-13T13:06:26;19.75;;;15.55;;
52396;SDS011;38322;53.108;6.308;2022-10-13T13:09:07;21.63;;;16.75;;
52396;SDS011;38322;53.108;6.308;2022-10-13T13:11:46;23.23;;;17.02;;
52396;SDS011;38322;53.108;6.308;2022-10-13T13:14:23;24.33;;;17.33;;
52396;SDS011;38322;53.108;6.308;2022-10-13T13:17:01;20.20;;;16.85;;
52396;SDS011;38322;53.108;6.308;2022-10-13T13:19:30;26.60;;;20.13;;
52396;SDS011;38322;53.108;6.308;2022-10-13T13:21:57;28.77;;;19.92;;
52396;SDS011;38322;53.108;6.308;2022-10-13T13:24:23;24.08;;;17.77;;
52396;SDS011;38322;53.108;6.308;2022-10-13T13:26:48;21.85;;;17.08;;
52396;SDS011;38322;53.108;6.308;2022-10-13T13:29:14;20.38;;;16.45;;
52396;SDS011;38322;53.108;6.308;2022-10-13T13:31:40;21.40;;;16.30;;
52396;SDS011;38322;53.108;6.308;2022-10-13T13:34:06;23.70;;;18.20;;
52396;SDS011;38322;53.108;6.308;2022-10-13T13:36:32;22.00;;;17.95;;
52396;SDS011;38322;53.108;6.308;2022-10-13T13:38:57;25.52;;;16.80;;
52396;SDS011;38322;53.108;6.308;2022-10-13T13:41:23;20.02;;;16.42;;
52396;SDS011;38322;53.108;6.308;2022-10-13T13:43:52;22.67;;;17.05;;
52396;SDS011;38322;53.108;6.308;2022-10-13T13:46:20;18.30;;;15.02;;
52396;SDS011;38322;53.108;6.308;2022-10-13T13:48:48;23.55;;;15.30;;
52396;SDS011;38322;53.108;6.308;2022-10-13T13:51:14;22.52;;;16.00;;
52396;SDS011;38322;53.108;6.308;2022-10-13T13:53:41;20.60;;;16.80;;
52396;SDS011;38322;53.108;6.308;2022-10-13T13:56:09;21.75;;;16.05;;
52396;SDS011;38322;53.108;6.308;2022-10-13T13:58:37;20.23;;;15.75;;
52396;SDS011;38322;53.108;6.308;2022-10-13T14:01:03;22.20;;;17.20;;
52396;SDS011;38322;53.108;6.308;2022-10-13T14:03:28;19.90;;;16.45;;
52396;SDS011;38322;53.108;6.308;2022-10-13T14:05:55;19.40;;;16.38;;
52396;SDS011;38322;53.108;6.308;2022-10-13T14:08:21;19.00;;;16.25;;
52396;SDS011;38322;53.108;6.308;2022-10-13T14:10:47;23.38;;;17.63;;
52396;SDS011;38322;53.108;6.308;2022-10-13T14:13:13;26.20;;;19.33;;
52396;SDS011;38322;53.108;6.308;2022-10-13T14:15:38;21.77;;;17.02;;
52396;SDS011;38322;53.108;6.308;2022-10-13T14:18:04;20.45;;;16.25;;
52396;SDS011;38322;53.108;6.308;2022-10-13T14:20:30;21.13;;;16.30;;
52396;SDS011;38322;53.108;6.308;2022-10-13T14:22:57;20.80;;;17.35;;
52396;SDS011;38322;53.108;6.308;2022-10-13T14:25:22;26.13;;;16.73;;
52396;SDS011;38322;53.108;6.308;2022-10-13T14:27:48;24.10;;;17.75;;
52396;SDS011;38322;53.108;6.308;2022-10-13T14:30:14;24.10;;;15.07;;
52396;SDS011;38322;53.108;6.308;2022-10-13T14:32:40;24.52;;;16.15;;
52396;SDS011;38322;53.108;6.308;2022-10-13T14:35:06;19.45;;;16.08;;
52396;SDS011;38322;53.108;6.308;2022-10-13T14:37:32;19.85;;;17.75;;
52396;SDS011;38322;53.108;6.308;2022-10-13T14:39:58;18.88;;;15.20;;
52396;SDS011;38322;53.108;6.308;2022-10-13T14:42:24;23.23;;;17.80;;
52396;SDS011;38322;53.108;6.308;2022-10-13T14:44:50;21.92;;;17.10;;
52396;SDS011;38322;53.108;6.308;2022-10-13T14:47:15;22.83;;;17.00;;
52396;SDS011;38322;53.108;6.308;2022-10-13T14:49:41;23.77;;;17.90;;
52396;SDS011;38322;53.108;6.308;2022-10-13T14:52:07;22.02;;;18.17;;
52396;SDS011;38322;53.108;6.308;2022-10-13T14:54:33;20.77;;;15.18;;
52396;SDS011;38322;53.108;6.308;2022-10-13T14:56:59;22.95;;;16.45;;
52396;SDS011;38322;53.108;6.308;2022-10-13T14:59:29;19.58;;;16.30;;
52396;SDS011;38322;53.108;6.308;2022-10-13T15:01:55;23.65;;;16.95;;
52396;SDS011;38322;53.108;6.308;2022-10-13T15:04:21;19.85;;;14.18;;
52396;SDS011;38322;53.108;6.308;2022-10-13T15:06:47;20.00;;;16.02;;
52396;SDS011;38322;53.108;6.308;2022-10-13T15:09:13;19.98;;;14.77;;
52396;SDS011;38322;53.108;6.308;2022-10-13T15:11:38;17.77;;;14.90;;
52396;SDS011;38322;53.108;6.308;2022-10-13T15:14:04;19.80;;;13.95;;
52396;SDS011;38322;53.108;6.308;2022-10-13T15:16:31;20.23;;;14.70;;
52396;SDS011;38322;53.108;6.308;2022-10-13T15:18:57;18.13;;;14.80;;
52396;SDS011;38322;53.108;6.308;2022-10-13T15:21:24;16.88;;;14.95;;
52396;SDS011;38322;53.108;6.308;2022-10-13T15:23:50;19.60;;;14.20;;
52396;SDS011;38322;53.108;6.308;2022-10-13T15:26:16;20.05;;;14.43;;
52396;SDS011;38322;53.108;6.308;2022-10-13T15:28:44;21.58;;;15.65;;
52396;SDS011;38322;53.108;6.308;2022-10-13T15:31:12;21.48;;;15.70;;
52396;SDS011;38322;53.108;6.308;2022-10-13T15:33:41;21.00;;;15.68;;
52396;SDS011;38322;53.108;6.308;2022-10-13T15:36:08;18.33;;;15.05;;
52396;SDS011;38322;53.108;6.308;2022-10-13T15:38:34;23.60;;;14.98;;
52396;SDS011;38322;53.108;6.308;2022-10-13T15:41:00;25.00;;;16.90;;
52396;SDS011;38322;53.108;6.308;2022-10-13T15:43:28;23.25;;;14.85;;
52396;SDS011;38322;53.108;6.308;2022-10-13T15:45:56;19.88;;;14.50;;
52396;SDS011;38322;53.108;6.308;2022-10-13T15:48:25;17.02;;;15.15;;
52396;SDS011;38322;53.108;6.308;2022-10-13T15:50:51;15.00;;;12.38;;
52396;SDS011;38322;53.108;6.308;2022-10-13T15:53:17;23.52;;;14.98;;
52396;SDS011;38322;53.108;6.308;2022-10-13T15:55:44;21.17;;;15.65;;
52396;SDS011;38322;53.108;6.308;2022-10-13T15:58:11;24.67;;;18.38;;
52396;SDS011;38322;53.108;6.308;2022-10-13T16:00:37;22.73;;;15.68;;
52396;SDS011;38322;53.108;6.308;2022-10-13T16:03:03;15.73;;;13.27;;
52396;SDS011;38322;53.108;6.308;2022-10-13T16:05:30;19.63;;;16.15;;
52396;SDS011;38322;53.108;6.308;2022-10-13T16:07:57;20.58;;;13.77;;
52396;SDS011;38322;53.108;6.308;2022-10-13T16:10:23;25.00;;;16.58;;
52396;SDS011;38322;53.108;6.308;2022-10-13T16:12:49;20.48;;;17.20;;
52396;SDS011;38322;53.108;6.308;2022-10-13T16:15:15;24.27;;;16.77;;
52396;SDS011;38322;53.108;6.308;2022-10-13T16:17:42;22.15;;;17.42;;
52396;SDS011;38322;53.108;6.308;2022-10-13T16:20:10;23.95;;;16.58;;
52396;SDS011;38322;53.108;6.308;2022-10-13T16:22:36;25.67;;;17.60;;
52396;SDS011;38322;53.108;6.308;2022-10-13T16:25:02;24.08;;;16.60;;
52396;SDS011;38322;53.108;6.308;2022-10-13T16:27:28;25.48;;;17.35;;
52396;SDS011;38322;53.108;6.308;2022-10-13T16:29:54;22.30;;;16.42;;
52396;SDS011;38322;53.108;6.308;2022-10-13T16:32:20;21.15;;;15.95;;
52396;SDS011;38322;53.108;6.308;2022-10-13T16:34:46;21.45;;;17.20;;
52396;SDS011;38322;53.108;6.308;2022-10-13T16:37:12;22.65;;;16.77;;
52396;SDS011;38322;53.108;6.308;2022-10-13T16:39:38;22.45;;;15.82;;
52396;SDS011;38322;53.108;6.308;2022-10-13T16:42:04;28.27;;;16.95;;
52396;SDS011;38322;53.108;6.308;2022-10-13T16:44:30;30.65;;;16.63;;
52396;SDS011;38322;53.108;6.308;2022-10-13T16:46:55;26.80;;;16.52;;
52396;SDS011;38322;53.108;6.308;2022-10-13T16:49:22;29.52;;;17.85;;
52396;SDS011;38322;53.108;6.308;2022-10-13T16:51:48;25.15;;;17.65;;
52396;SDS011;38322;53.108;6.308;2022-10-13T16:54:14;21.88;;;16.25;;
52396;SDS011;38322;53.108;6.308;2022-10-13T16:56:39;25.80;;;17.15;;
52396;SDS011;38322;53.108;6.308;2022-10-13T16:59:05;24.73;;;18.95;;
52396;SDS011;38322;53.108;6.308;2022-10-13T17:01:32;26.27;;;19.58;;
52396;SDS011;38322;53.108;6.308;2022-10-13T17:03:58;21.23;;;18.05;;
52396;SDS011;38322;53.108;6.308;2022-10-13T17:06:26;27.55;;;18.17;;
52396;SDS011;38322;53.108;6.308;2022-10-13T17:08:53;25.00;;;16.95;;
52396;SDS011;38322;53.108;6.308;2022-10-13T17:11:21;20.98;;;16.52;;
52396;SDS011;38322;53.108;6.308;2022-10-13T17:13:49;15.80;;;11.55;;
52396;SDS011;38322;53.108;6.308;2022-10-13T17:16:16;288.48;;;26.83;;
52396;SDS011;38322;53.108;6.308;2022-10-13T17:18:42;15.90;;;11.90;;
52396;SDS011;38322;53.108;6.308;2022-10-13T17:21:08;19.65;;;14.85;;
52396;SDS011;38322;53.108;6.308;2022-10-13T17:23:37;13.20;;;10.77;;
52396;SDS011;38322;53.108;6.308;2022-10-13T17:26:04;11.98;;;10.23;;
52396;SDS011;38322;53.108;6.308;2022-10-13T17:28:32;16.33;;;13.05;;
52396;SDS011;38322;53.108;6.308;2022-10-13T17:31:01;25.85;;;9.80;;
52396;SDS011;38322;53.108;6.308;2022-10-13T17:33:30;6.70;;;5.72;;
52396;SDS011;38322;53.108;6.308;2022-10-13T17:35:58;27.85;;;17.38;;
52396;SDS011;38322;53.108;6.308;2022-10-13T17:38:25;27.17;;;17.67;;
52396;SDS011;38322;53.108;6.308;2022-10-13T17:40:52;30.65;;;18.55;;
52396;SDS011;38322;53.108;6.308;2022-10-13T17:43:18;24.35;;;16.92;;
52396;SDS011;38322;53.108;6.308;2022-10-13T17:45:44;34.45;;;17.60;;
52396;SDS011;38322;53.108;6.308;2022-10-13T17:48:09;67.90;;;16.50;;
52396;SDS011;38322;53.108;6.308;2022-10-13T17:50:35;62.75;;;14.68;;
52396;SDS011;38322;53.108;6.308;2022-10-13T17:53:02;66.68;;;14.50;;
52396;SDS011;38322;53.108;6.308;2022-10-13T17:55:29;25.70;;;10.88;;
52396;SDS011;38322;53.108;6.308;2022-10-13T17:57:55;15.77;;;7.40;;
52396;SDS011;38322;53.108;6.308;2022-10-13T18:00:21;9.43;;;7.65;;
52396;SDS011;38322;53.108;6.308;2022-10-13T18:02:47;11.50;;;8.70;;
52396;SDS011;38322;53.108;6.308;2022-10-13T18:05:13;10.82;;;9.00;;
52396;SDS011;38322;53.108;6.308;2022-10-13T18:07:39;10.73;;;9.63;;
52396;SDS011;38322;53.108;6.308;2022-10-13T18:10:04;12.57;;;10.40;;
52396;SDS011;38322;53.108;6.308;2022-10-13T18:12:31;18.63;;;11.63;;
52396;SDS011;38322;53.108;6.308;2022-10-13T18:14:57;19.00;;;13.18;;
52396;SDS011;38322;53.108;6.308;2022-10-13T18:17:22;15.70;;;12.85;;
52396;SDS011;38322;53.108;6.308;2022-10-13T18:19:48;14.70;;;11.95;;
52396;SDS011;38322;53.108;6.308;2022-10-13T18:22:15;17.08;;;13.68;;
52396;SDS011;38322;53.108;6.308;2022-10-13T18:24:44;18.23;;;13.10;;
52396;SDS011;38322;53.108;6.308;2022-10-13T18:27:10;62.63;;;11.23;;
52396;SDS011;38322;53.108;6.308;2022-10-13T18:29:36;151.05;;;16.65;;
52396;SDS011;38322;53.108;6.308;2022-10-13T18:32:02;69.40;;;12.77;;
52396;SDS011;38322;53.108;6.308;2022-10-13T18:34:28;15.43;;;10.93;;
52396;SDS011;38322;53.108;6.308;2022-10-13T18:36:54;12.98;;;8.70;;
52396;SDS011;38322;53.108;6.308;2022-10-13T18:39:21;23.40;;;10.43;;
52396;SDS011;38322;53.108;6.308;2022-10-13T18:41:49;15.00;;;9.95;;
52396;SDS011;38322;53.108;6.308;2022-10-13T18:44:17;9.75;;;8.75;;
52396;SDS011;38322;53.108;6.308;2022-10-13T18:46:43;14.25;;;10.05;;
52396;SDS011;38322;53.108;6.308;2022-10-13T18:49:10;16.73;;;10.25;;
52396;SDS011;38322;53.108;6.308;2022-10-13T18:51:38;38.00;;;12.80;;
52396;SDS011;38322;53.108;6.308;2022-10-13T18:54:05;18.55;;;11.60;;
52396;SDS011;38322;53.108;6.308;2022-10-13T18:56:32;15.40;;;11.60;;
52396;SDS011;38322;53.108;6.308;2022-10-13T18:58:59;16.15;;;13.35;;
52396;SDS011;38322;53.108;6.308;2022-10-13T19:01:26;14.73;;;12.07;;
52396;SDS011;38322;53.108;6.308;2022-10-13T19:03:54;16.60;;;12.00;;
52396;SDS011;38322;53.108;6.308;2022-10-13T19:06:21;21.48;;;14.57;;
52396;SDS011;38322;53.108;6.308;2022-10-13T19:08:56;27.08;;;17.20;;
52396;SDS011;38322;53.108;6.308;2022-10-13T19:11:25;22.08;;;17.33;;
52396;SDS011;38322;53.108;6.308;2022-10-13T19:13:52;22.92;;;16.35;;
52396;SDS011;38322;53.108;6.308;2022-10-13T19:16:18;16.95;;;14.50;;
52396;SDS011;38322;53.108;6.308;2022-10-13T19:18:46;21.15;;;14.50;;
52396;SDS011;38322;53.108;6.308;2022-10-13T19:21:13;17.45;;;12.00;;
52396;SDS011;38322;53.108;6.308;2022-10-13T19:23:39;15.20;;;11.20;;
52396;SDS011;38322;53.108;6.308;2022-10-13T19:26:12;12.38;;;9.95;;
52396;SDS011;38322;53.108;6.308;2022-10-13T19:28:41;14.45;;;12.35;;
52396;SDS011;38322;53.108;6.308;2022-10-13T19:31:09;12.68;;;10.82;;
52396;SDS011;38322;53.108;6.308;2022-10-13T19:33:37;15.55;;;11.63;;
52396;SDS011;38322;53.108;6.308;2022-10-13T19:36:03;13.48;;;9.15;;
52396;SDS011;38322;53.108;6.308;2022-10-13T19:38:29;11.98;;;9.05;;
52396;SDS011;38322;53.108;6.308;2022-10-13T19:40:59;20.58;;;14.02;;
52396;SDS011;38322;53.108;6.308;2022-10-13T19:43:28;23.05;;;15.93;;
52396;SDS011;38322;53.108;6.308;2022-10-13T19:45:54;33.05;;;20.50;;
52396;SDS011;38322;53.108;6.308;2022-10-13T19:48:20;31.27;;;19.60;;
52396;SDS011;38322;53.108;6.308;2022-10-13T19:50:47;34.30;;;19.33;;
52396;SDS011;38322;53.108;6.308;2022-10-13T19:53:13;21.58;;;15.95;;
52396;SDS011;38322;53.108;6.308;2022-10-13T19:55:41;27.75;;;19.10;;
52396;SDS011;38322;53.108;6.308;2022-10-13T19:58:08;25.35;;;18.40;;
